Time;durP1;ratioP1;P1;durP2;ratioP2;P2;SDS_P1;SDS_P2;PMS_P1;PMS_P2;Temp;Humidity;BMP_temperature;BMP_pressure;BME280_temperature;BME280_humidity;BME280_pressure;Samples;Min_cycle;Max_cycle;Signal;HPM_P1;HPM_P2
2023/03/27 00:01:48;;;;;;;3.50;2.00;;;23.10;46.10;;;;;;6126330;28;82924;-62
2023/03/27 00:04:48;;;;;;;3.28;2.30;;;23.10;46.30;;;;;;6127095;28;80785;-61
2023/03/27 00:07:49;;;;;;;3.28;2.08;;;23.10;45.90;;;;;;6126324;28;80592;-62
2023/03/27 00:10:49;;;;;;;4.50;2.35;;;23.10;46.00;;;;;;6126377;28;80480;-63
2023/03/27 00:13:53;;;;;;;5.80;2.10;;;23.10;46.00;;;;;;6126626;28;80404;-67
2023/03/27 00:16:53;;;;;;;2.78;2.08;;;23.10;45.90;;;;;;6128028;28;80956;-65
2023/03/27 00:19:54;;;;;;;2.35;1.73;;;23.10;45.90;;;;;;6130890;28;80020;-66
2023/03/27 00:22:55;;;;;;;3.40;1.80;;;23.10;46.10;;;;;;6128360;28;84978;-67
2023/03/27 00:25:59;;;;;;;4.60;2.40;;;23.10;46.00;;;;;;6130207;28;80293;-69
2023/03/27 00:28:59;;;;;;;3.15;2.05;;;23.10;46.10;;;;;;6119349;28;80496;-68
2023/03/27 00:32:00;;;;;;;3.63;2.00;;;23.10;46.10;;;;;;6128901;28;80456;-70
2023/03/27 00:35:00;;;;;;;3.30;2.33;;;23.10;46.20;;;;;;6125231;28;83620;-66
2023/03/27 00:38:01;;;;;;;3.53;1.90;;;23.10;46.20;;;;;;6129361;28;80532;-67
2023/03/27 00:41:01;;;;;;;6.65;2.58;;;23.10;46.00;;;;;;6130077;28;80613;-66
2023/03/27 00:44:02;;;;;;;4.88;2.50;;;23.10;46.30;;;;;;6130321;28;80620;-68
2023/03/27 00:47:03;;;;;;;3.53;2.10;;;23.10;46.10;;;;;;6112321;28;83671;-68
2023/03/27 00:50:04;;;;;;;3.65;2.20;;;23.10;46.40;;;;;;6112313;28;80629;-68
2023/03/27 00:53:04;;;;;;;3.97;2.30;;;23.10;46.30;;;;;;6129108;28;80186;-65
2023/03/27 00:56:05;;;;;;;5.38;2.63;;;23.10;46.40;;;;;;6112494;28;81668;-66
2023/03/27 00:59:05;;;;;;;4.30;2.20;;;23.10;46.70;;;;;;6130293;28;80363;-66
2023/03/27 01:02:06;;;;;;;3.90;2.40;;;23.10;46.20;;;;;;6131314;28;80604;-66
2023/03/27 01:05:06;;;;;;;3.42;2.22;;;23.10;46.10;;;;;;6114734;28;82973;-67
2023/03/27 01:08:07;;;;;;;3.13;2.10;;;23.10;46.30;;;;;;6113118;28;82960;-64
2023/03/27 01:11:08;;;;;;;3.92;2.20;;;23.00;46.40;;;;;;6130012;28;80090;-64
2023/03/27 01:14:08;;;;;;;3.08;2.10;;;23.10;46.30;;;;;;6112306;28;82256;-66
2023/03/27 01:17:10;;;;;;;4.03;2.22;;;23.10;46.30;;;;;;6113757;28;83136;-67
2023/03/27 01:20:13;;;;;;;4.03;2.30;;;23.10;46.40;;;;;;6112542;28;81659;-67
2023/03/27 01:23:14;;;;;;;6.03;2.38;;;23.10;45.90;;;;;;6101859;28;82202;-67
2023/03/27 01:26:19;;;;;;;3.95;2.38;;;23.10;46.10;;;;;;6121396;28;82921;-68
2023/03/27 01:29:20;;;;;;;4.30;2.10;;;23.20;46.00;;;;;;6110796;28;83768;-70
2023/03/27 01:32:21;;;;;;;2.97;1.88;;;23.20;45.80;;;;;;6116330;28;83155;-67
2023/03/27 01:35:21;;;;;;;4.47;2.50;;;23.10;45.80;;;;;;6121005;28;91310;-67
2023/03/27 01:38:22;;;;;;;3.28;2.33;;;23.10;46.00;;;;;;6111532;28;83696;-67
2023/03/27 01:41:23;;;;;;;3.60;2.00;;;23.20;45.90;;;;;;6129486;28;80486;-67
2023/03/27 01:44:24;;;;;;;2.75;2.10;;;23.20;45.90;;;;;;6111834;28;82977;-68
2023/03/27 01:47:25;;;;;;;3.33;2.03;;;23.10;45.80;;;;;;6100346;28;84478;-68
2023/03/27 01:50:26;;;;;;;4.68;2.50;;;23.20;45.80;;;;;;6080505;28;82543;-67
2023/03/27 01:53:28;;;;;;;3.17;1.90;;;23.10;45.70;;;;;;6075502;28;82708;-67
2023/03/27 01:56:31;;;;;;;4.22;2.50;;;23.20;45.60;;;;;;6093574;28;83180;-67
2023/03/27 01:59:32;;;;;;;4.30;2.83;;;23.10;45.60;;;;;;6086653;28;88003;-64
2023/03/27 02:02:33;;;;;;;3.28;2.35;;;23.10;45.50;;;;;;6088050;28;83660;-64
2023/03/27 02:05:33;;;;;;;4.32;2.17;;;23.10;45.70;;;;;;6103321;28;81927;-65
2023/03/27 02:08:34;;;;;;;5.18;2.50;;;23.10;45.50;;;;;;6100418;28;83272;-68
2023/03/27 02:11:47;;;;;;;5.45;2.38;;;23.20;45.70;;;;;;6086601;28;83175;-68
2023/03/27 02:14:49;;;;;;;5.07;2.15;;;23.10;45.80;;;;;;6080271;28;83532;-68
2023/03/27 02:17:51;;;;;;;3.53;2.20;;;23.10;45.70;;;;;;6081612;28;83548;-68
2023/03/27 02:20:51;;;;;;;3.85;2.10;;;23.10;45.60;;;;;;6087481;28;82329;-67
2023/03/27 02:23:53;;;;;;;3.17;2.38;;;23.10;45.70;;;;;;6093941;28;83800;-67
2023/03/27 02:26:53;;;;;;;6.38;2.30;;;23.10;45.90;;;;;;6087703;28;83156;-66
2023/03/27 02:29:54;;;;;;;3.13;2.13;;;23.10;45.80;;;;;;6087844;28;82249;-66
2023/03/27 02:32:55;;;;;;;3.78;2.28;;;23.10;45.80;;;;;;6095858;28;82804;-67
2023/03/27 02:36:02;;;;;;;4.00;2.58;;;23.10;45.80;;;;;;6093869;28;82764;-66
2023/03/27 02:39:03;;;;;;;3.05;1.73;;;23.10;45.70;;;;;;6085445;28;81300;-65
2023/03/27 02:42:05;;;;;;;2.63;2.03;;;23.10;45.90;;;;;;6086694;28;81176;-67
2023/03/27 02:45:11;;;;;;;4.72;2.75;;;23.10;45.90;;;;;;6078516;28;82293;-67
2023/03/27 02:48:12;;;;;;;3.25;2.22;;;23.10;45.80;;;;;;6086173;28;84161;-66
2023/03/27 02:51:12;;;;;;;3.25;2.10;;;23.10;45.70;;;;;;6085718;28;83249;-68
2023/03/27 02:54:13;;;;;;;3.13;2.10;;;23.10;45.80;;;;;;6103482;28;81642;-67
2023/03/27 02:57:14;;;;;;;5.70;2.30;;;23.10;45.80;;;;;;6086186;28;83580;-67
2023/03/27 03:00:33;;;;;;;3.22;2.42;;;23.10;45.90;;;;;;6102655;28;84362;-66
2023/03/27 03:03:52;;;;;;;4.53;2.53;;;23.10;46.10;;;;;;6077468;28;83038;-67
2023/03/27 03:07:25;;;;;;;3.75;2.20;;;23.10;45.80;;;;;;6072449;28;83699;-67
2023/03/27 03:10:26;;;;;;;5.07;2.38;;;23.10;45.80;;;;;;6127905;28;80298;-68
2023/03/27 03:13:26;;;;;;;3.13;2.15;;;23.10;46.60;;;;;;6108930;28;81672;-68
2023/03/27 03:16:27;;;;;;;3.20;2.55;;;23.10;45.90;;;;;;6127387;28;80522;-67
2023/03/27 03:19:27;;;;;;;3.40;2.22;;;23.10;45.80;;;;;;6115064;28;81759;-65
2023/03/27 03:22:28;;;;;;;4.80;2.75;;;23.20;45.50;;;;;;6126854;28;80100;-64
2023/03/27 03:25:30;;;;;;;4.97;2.85;;;23.10;45.50;;;;;;6127053;28;80749;-66
2023/03/27 03:28:30;;;;;;;4.03;2.47;;;23.10;45.60;;;;;;6109483;28;82324;-65
2023/03/27 03:31:42;;;;;;;5.45;2.55;;;23.10;45.50;;;;;;6111783;28;83760;-63
2023/03/27 03:34:45;;;;;;;4.68;2.85;;;23.20;45.60;;;;;;6097884;28;81069;-64
2023/03/27 03:37:50;;;;;;;4.53;2.65;;;23.20;45.70;;;;;;6125589;28;82503;-64
2023/03/27 03:40:51;;;;;;;3.42;2.30;;;23.20;45.50;;;;;;6107681;28;83636;-64
2023/03/27 03:43:52;;;;;;;4.50;2.58;;;23.20;45.60;;;;;;6108978;28;82957;-63
2023/03/27 03:46:52;;;;;;;4.15;2.50;;;23.30;45.50;;;;;;6112838;28;82959;-65
2023/03/27 03:49:55;;;;;;;3.33;2.50;;;23.30;45.40;;;;;;6125221;28;80650;-65
2023/03/27 03:52:55;;;;;;;4.22;2.30;;;23.40;45.30;;;;;;6115444;28;81357;-64
2023/03/27 03:55:56;;;;;;;4.30;2.35;;;23.40;45.20;;;;;;6130204;28;80796;-63
2023/03/27 03:58:57;;;;;;;3.63;2.10;;;23.40;45.10;;;;;;6112564;28;83048;-65
2023/03/27 04:01:59;;;;;;;4.72;2.67;;;23.50;45.40;;;;;;6130979;28;80137;-67
2023/03/27 04:05:03;;;;;;;4.40;2.35;;;23.50;45.10;;;;;;6106538;28;83643;-65
2023/03/27 04:08:07;;;;;;;5.70;2.95;;;23.50;45.10;;;;;;6117820;28;83627;-67
2023/03/27 04:11:26;;;;;;;3.42;2.40;;;23.50;44.90;;;;;;6124399;28;81054;-64
2023/03/27 04:14:45;;;;;;;8.70;2.78;;;23.50;44.60;;;;;;6131518;28;80790;-65
2023/03/27 04:18:06;;;;;;;6.50;2.53;;;23.50;44.80;;;;;;6123630;28;81075;-65
2023/03/27 04:21:13;;;;;;;5.72;2.42;;;23.50;45.00;;;;;;6112457;28;82238;-72
2023/03/27 04:24:17;;;;;;;4.15;2.38;;;23.60;45.00;;;;;;6097733;28;80587;-65
2023/03/27 04:27:20;;;;;;;3.38;2.20;;;23.60;45.40;;;;;;6114352;28;83212;-65
2023/03/27 04:30:35;;;;;;;8.23;2.63;;;23.60;45.30;;;;;;6112590;28;83254;-64
2023/03/27 04:33:54;;;;;;;3.83;2.35;;;23.60;45.50;;;;;;6130439;28;80650;-67
2023/03/27 04:37:17;;;;;;;3.38;2.42;;;23.50;45.60;;;;;;6119851;28;86092;-72
2023/03/27 04:40:32;;;;;;;4.03;2.38;;;23.60;45.80;;;;;;6119608;28;81572;-69
2023/03/27 04:43:35;;;;;;;5.40;2.53;;;23.60;45.70;;;;;;6118976;28;81686;-66
2023/03/27 04:46:36;;;;;;;4.68;2.63;;;23.60;45.50;;;;;;6128854;28;83217;-76
2023/03/27 04:49:45;;;;;;;4.33;2.50;;;23.60;45.40;;;;;;6129247;28;83794;-73
2023/03/27 04:52:57;;;;;;;4.35;2.83;;;23.60;45.30;;;;;;6128726;28;82884;-69
2023/03/27 04:55:58;;;;;;;3.87;2.40;;;23.60;45.30;;;;;;6129421;28;81812;-70
2023/03/27 04:58:59;;;;;;;8.55;2.70;;;23.70;45.20;;;;;;6127206;28;83412;-68
2023/03/27 05:02:00;;;;;;;4.22;2.58;;;23.60;45.10;;;;;;6075691;28;82797;-70
2023/03/27 05:05:30;;;;;;;5.82;2.80;;;23.60;45.00;;;;;;6125430;28;80704;-71
2023/03/27 05:08:31;;;;;;;7.50;2.83;;;23.60;44.90;;;;;;6133297;28;83531;-68
2023/03/27 05:11:32;;;;;;;7.47;3.10;;;23.60;45.00;;;;;;6131717;28;83448;-65
2023/03/27 05:14:33;;;;;;;6.13;2.80;;;23.60;45.20;;;;;;6129249;28;83174;-71
2023/03/27 05:17:33;;;;;;;6.57;2.78;;;23.60;45.10;;;;;;6082322;28;86072;-71
2023/03/27 05:20:34;;;;;;;5.50;2.65;;;23.60;45.00;;;;;;6138318;28;85900;-68
2023/03/27 05:23:39;;;;;;;4.93;2.55;;;23.50;44.90;;;;;;6126309;28;82830;-69
2023/03/27 05:26:42;;;;;;;5.00;2.50;;;23.50;45.00;;;;;;6130184;28;81549;-69
2023/03/27 05:29:42;;;;;;;9.90;2.97;;;23.50;44.80;;;;;;6119697;28;83166;-72
2023/03/27 05:32:43;;;;;;;6.45;2.70;;;23.50;44.80;;;;;;6106663;28;82623;-71
2023/03/27 05:35:49;;;;;;;;;;;23.40;44.90;;;;;;6122063;28;83341;-72
2023/03/27 05:38:51;;;;;;;10.73;4.13;;;23.40;45.10;;;;;;6134821;28;83484;-72
2023/03/27 05:42:04;;;;;;;6.50;3.40;;;23.30;45.10;;;;;;6118079;28;80826;-76
2023/03/27 05:45:05;;;;;;;6.70;3.58;;;23.30;45.10;;;;;;6108620;28;82817;-76
2023/03/27 05:48:06;;;;;;;6.43;3.40;;;23.30;45.00;;;;;;6111524;28;83146;-72
2023/03/27 05:51:11;;;;;;;6.90;3.22;;;23.30;44.90;;;;;;6136825;28;81668;-70
2023/03/27 05:54:12;;;;;;;6.20;3.35;;;23.30;44.70;;;;;;6137082;28;83023;-69
2023/03/27 05:57:23;;;;;;;4.03;2.90;;;23.20;44.70;;;;;;6107128;28;82746;-66
2023/03/27 06:00:31;;;;;;;7.85;3.55;;;23.20;45.00;;;;;;6110323;28;82446;-65
2023/03/27 06:03:34;;;;;;;6.38;3.35;;;23.20;44.90;;;;;;6128450;28;83305;-66
2023/03/27 06:06:35;;;;;;;4.15;3.03;;;23.20;44.70;;;;;;6103177;28;84071;-67
2023/03/27 06:09:37;;;;;;;5.07;3.17;;;23.20;44.50;;;;;;6095105;28;83219;-68
2023/03/27 06:12:59;;;;;;;5.70;3.55;;;23.20;44.30;;;;;;6094074;28;80926;-69
2023/03/27 06:16:06;;;;;;;5.30;3.17;;;23.20;44.20;;;;;;6110392;28;84367;-67
2023/03/27 06:19:10;;;;;;;4.60;2.95;;;23.20;44.10;;;;;;6120275;28;84739;-64
2023/03/27 06:22:18;;;;;;;5.95;3.25;;;23.20;44.00;;;;;;6103245;28;82855;-66
2023/03/27 06:25:21;;;;;;;5.72;3.55;;;23.20;43.90;;;;;;6129723;28;83606;-65
2023/03/27 06:28:21;;;;;;;6.72;3.58;;;23.20;43.90;;;;;;6130073;28;83497;-68
2023/03/27 06:31:23;;;;;;;6.47;3.53;;;23.20;44.30;;;;;;6125090;28;81468;-66
2023/03/27 06:34:35;;;;;;;7.45;3.60;;;23.10;43.60;;;;;;6131582;28;82507;-72
2023/03/27 06:37:47;;;;;;;5.30;3.33;;;23.10;43.80;;;;;;6138592;28;81667;-71
2023/03/27 06:40:48;;;;;;;4.85;3.42;;;23.10;44.50;;;;;;6138813;28;83472;-66
2023/03/27 06:43:49;;;;;;;5.97;3.15;;;23.00;44.90;;;;;;6124755;28;83595;-63
2023/03/27 06:47:03;;;;;;;3.90;3.22;;;23.00;45.10;;;;;;6131813;28;83298;-70
2023/03/27 06:50:26;;;;;;;5.40;3.22;;;23.00;45.40;;;;;;6131269;28;80650;-68
2023/03/27 06:53:30;;;;;;;7.18;3.35;;;23.00;45.60;;;;;;6127604;28;82024;-68
2023/03/27 06:56:31;;;;;;;5.55;2.92;;;23.00;45.60;;;;;;6123687;28;81413;-68
2023/03/27 06:59:53;;;;;;;4.30;2.80;;;23.00;45.80;;;;;;6124413;28;83848;-74
2023/03/27 07:02:58;;;;;;;4.03;2.60;;;23.00;46.20;;;;;;6120471;28;83248;-70
2023/03/27 07:06:20;;;;;;;4.72;3.42;;;23.00;46.40;;;;;;6125854;28;81086;-82
2023/03/27 07:09:28;;;;;;;5.03;3.10;;;23.00;46.60;;;;;;6132509;28;83074;-79
2023/03/27 07:12:35;;;;;;;6.20;2.95;;;23.00;46.70;;;;;;6121767;28;82997;-84
2023/03/27 07:15:35;;;;;;;5.80;2.88;;;23.00;46.50;;;;;;6128844;28;82734;-73
2023/03/27 07:18:36;;;;;;;5.75;2.75;;;22.90;46.80;;;;;;6113687;28;83548;-70
2023/03/27 07:21:37;;;;;;;5.88;2.83;;;23.00;46.70;;;;;;6119902;28;86110;-76
2023/03/27 07:24:39;;;;;;;3.35;2.42;;;23.00;46.60;;;;;;6108465;28;82615;-78
2023/03/27 07:27:41;;;;;;;4.10;2.22;;;23.00;46.70;;;;;;6141574;28;80715;-73
2023/03/27 07:30:41;;;;;;;4.97;2.45;;;23.00;46.80;;;;;;6142931;28;81890;-79
2023/03/27 07:33:44;;;;;;;3.80;2.90;;;23.00;47.30;;;;;;6111179;28;82848;-74
2023/03/27 07:36:46;;;;;;;3.83;2.70;;;23.00;47.50;;;;;;6116489;28;81050;-68
2023/03/27 07:39:47;;;;;;;4.38;2.45;;;23.00;47.60;;;;;;6123869;28;84325;-67
2023/03/27 07:42:48;;;;;;;3.72;2.42;;;23.00;47.70;;;;;;6105161;28;82331;-68
2023/03/27 07:45:53;;;;;;;3.90;2.53;;;23.10;47.80;;;;;;6112314;28;83395;-69
2023/03/27 07:48:57;;;;;;;3.95;2.60;;;23.10;47.80;;;;;;6126337;28;80851;-70
2023/03/27 07:51:59;;;;;;;3.30;2.50;;;23.20;47.70;;;;;;6105817;28;82891;-74
2023/03/27 07:55:01;;;;;;;5.18;2.35;;;23.20;47.50;;;;;;6124954;28;81531;-73
2023/03/27 07:58:11;;;;;;;3.22;2.17;;;23.20;47.30;;;;;;6132819;28;87232;-72
2023/03/27 08:01:13;;;;;;;3.33;1.90;;;23.20;47.30;;;;;;6132396;28;83074;-70
2023/03/27 08:04:14;;;;;;;3.70;2.30;;;23.20;47.20;;;;;;6133306;28;82129;-68
2023/03/27 08:07:20;;;;;;;5.40;2.22;;;23.20;47.30;;;;;;6129780;28;82588;-70
2023/03/27 08:10:21;;;;;;;3.53;2.78;;;23.30;47.70;;;;;;6130492;28;84690;-70
2023/03/27 08:13:31;;;;;;;3.65;2.42;;;23.30;48.00;;;;;;6137247;28;83707;-66
2023/03/27 08:16:35;;;;;;;3.17;2.25;;;23.30;47.90;;;;;;6152997;28;81438;-62
2023/03/27 08:19:37;;;;;;;3.08;2.22;;;23.30;47.90;;;;;;6142917;28;83237;-67
2023/03/27 08:22:38;;;;;;;4.22;2.38;;;23.30;48.00;;;;;;6134838;28;83552;-66
2023/03/27 08:26:12;;;;;;;4.18;2.38;;;23.40;48.80;;;;;;6119026;28;80477;-65
2023/03/27 08:29:26;;;;;;;7.78;7.00;;;23.50;49.00;;;;;;6126029;28;82572;-65
2023/03/27 08:32:26;;;;;;;9.07;5.18;;;23.60;49.30;;;;;;6129200;28;80526;-64
2023/03/27 08:35:29;;;;;;;12.27;5.53;;;23.60;49.30;;;;;;6134340;28;81591;-63
2023/03/27 08:38:32;;;;;;;8.32;6.18;;;23.60;49.50;;;;;;6125473;28;83522;-63
2023/03/27 08:41:41;;;;;;;8.88;6.18;;;23.70;49.40;;;;;;6111154;28;83267;-62
2023/03/27 08:44:53;;;;;;;9.90;8.20;;;23.80;49.30;;;;;;6134180;28;81697;-63
2023/03/27 08:48:02;;;;;;;10.30;7.60;;;24.00;48.90;;;;;;6128772;28;82944;-62
2023/03/27 08:51:04;;;;;;;7.82;6.15;;;24.00;48.80;;;;;;6133882;28;81273;-68
2023/03/27 08:54:05;;;;;;;5.43;4.45;;;23.90;48.80;;;;;;6137143;28;83931;-74
2023/03/27 08:57:06;;;;;;;5.00;4.15;;;23.80;48.80;;;;;;6134376;28;83286;-78
2023/03/27 09:00:08;;;;;;;5.97;3.95;;;23.80;49.00;;;;;;6149398;28;83477;-73
2023/03/27 09:03:12;;;;;;;4.93;3.47;;;23.70;48.90;;;;;;6144341;28;80526;-71
2023/03/27 09:06:13;;;;;;;9.02;3.40;;;23.70;49.00;;;;;;6137070;28;83445;-73
2023/03/27 09:09:20;;;;;;;3.47;2.70;;;23.70;48.90;;;;;;6130990;28;83514;-78
2023/03/27 09:12:21;;;;;;;4.90;2.75;;;23.70;49.20;;;;;;6141738;28;84870;-73
2023/03/27 09:15:24;;;;;;;4.00;2.65;;;23.70;49.20;;;;;;6133806;28;83272;-76
2023/03/27 09:18:26;;;;;;;4.97;2.90;;;23.70;49.20;;;;;;6140056;28;82036;-74
2023/03/27 09:21:28;;;;;;;4.88;2.90;;;23.60;49.10;;;;;;6133639;28;82917;-76
2023/03/27 09:24:29;;;;;;;3.65;2.45;;;23.60;49.10;;;;;;6146354;28;83443;-72
2023/03/27 09:27:53;;;;;;;4.63;2.50;;;23.60;49.00;;;;;;6139539;28;81200;-64
2023/03/27 09:31:12;;;;;;;6.25;3.42;;;23.60;49.50;;;;;;6152093;28;83529;-64
2023/03/27 09:34:13;;;;;;;4.97;3.15;;;23.60;49.00;;;;;;6131771;28;83219;-65
2023/03/27 09:37:15;;;;;;;3.88;2.55;;;23.60;49.00;;;;;;6133066;28;83795;-63
2023/03/27 09:40:16;;;;;;;6.70;2.58;;;23.60;49.00;;;;;;6134036;28;82937;-63
2023/03/27 09:43:17;;;;;;;4.85;2.63;;;23.60;49.30;;;;;;6151231;28;80544;-62
2023/03/27 09:46:18;;;;;;;6.55;3.30;;;23.60;49.50;;;;;;6131769;28;84243;-63
2023/03/27 09:49:23;;;;;;;;;;;23.60;50.00;;;;;;6127345;28;87012;-63
2023/03/27 09:52:27;;;;;;;4.70;2.70;;;23.60;50.20;;;;;;6135156;28;83027;-63
2023/03/27 09:55:40;;;;;;;5.15;2.95;;;23.60;50.20;;;;;;6124741;28;80248;-65
2023/03/27 09:58:44;;;;;;;3.15;2.28;;;23.60;50.00;;;;;;6129799;28;81789;-64
2023/03/27 10:01:45;;;;;;;3.55;1.92;;;23.60;50.00;;;;;;6143013;28;82981;-67
2023/03/27 10:04:49;;;;;;;3.72;2.47;;;23.50;49.80;;;;;;6145815;28;83415;-64
2023/03/27 10:07:50;;;;;;;4.82;2.50;;;23.60;49.90;;;;;;6150627;28;82568;-64
2023/03/27 10:11:08;;;;;;;3.70;2.42;;;23.50;49.80;;;;;;6150229;28;80341;-64
2023/03/27 10:14:21;;;;;;;2.88;2.15;;;23.60;49.70;;;;;;6149486;28;83022;-64
2023/03/27 10:17:22;;;;;;;6.95;2.65;;;23.60;49.70;;;;;;6135415;28;83556;-61
2023/03/27 10:20:28;;;;;;;2.35;1.80;;;23.50;49.50;;;;;;6141618;28;84799;-64
2023/03/27 10:23:29;;;;;;;4.82;2.45;;;23.60;49.50;;;;;;6139153;28;82657;-63
2023/03/27 10:26:29;;;;;;;5.13;2.22;;;23.50;50.00;;;;;;6148972;28;80088;-71
2023/03/27 10:29:30;;;;;;;5.70;2.25;;;23.50;49.60;;;;;;6148671;28;80587;-64
2023/03/27 10:32:31;;;;;;;2.42;1.83;;;23.50;49.40;;;;;;6147102;28;81890;-64
2023/03/27 10:35:42;;;;;;;3.70;2.00;;;23.50;49.30;;;;;;6144143;28;83050;-63
2023/03/27 10:38:50;;;;;;;5.63;1.70;;;23.50;49.00;;;;;;6136479;28;82986;-63
2023/03/27 10:42:00;;;;;;;3.50;1.70;;;23.60;48.90;;;;;;6140348;28;83263;-64
2023/03/27 10:45:01;;;;;;;4.38;2.22;;;23.60;48.80;;;;;;6142789;28;83180;-64
2023/03/27 10:48:03;;;;;;;2.35;1.58;;;23.50;48.50;;;;;;6146997;28;80353;-66
2023/03/27 10:51:08;;;;;;;3.28;2.17;;;23.60;48.40;;;;;;6140514;28;82929;-65
2023/03/27 10:54:30;;;;;;;3.00;2.10;;;23.50;48.10;;;;;;6143702;28;83790;-64
2023/03/27 10:57:33;;;;;;;3.92;2.22;;;23.50;48.00;;;;;;6148208;28;83253;-78
2023/03/27 11:00:33;;;;;;;3.33;2.10;;;23.50;47.90;;;;;;6141511;28;83905;-76
2023/03/27 11:03:34;;;;;;;2.72;2.30;;;23.50;47.60;;;;;;6147894;28;83235;-79
2023/03/27 11:06:39;;;;;;;3.83;2.63;;;23.50;47.40;;;;;;6143655;28;83264;-76
2023/03/27 11:09:41;;;;;;;3.67;2.20;;;23.40;47.10;;;;;;6152428;28;81345;-76
2023/03/27 11:12:45;;;;;;;3.40;2.47;;;23.40;47.00;;;;;;6147155;28;81605;-77
2023/03/27 11:15:45;;;;;;;4.78;2.35;;;23.40;47.00;;;;;;6148756;28;83313;-63
2023/03/27 11:19:07;;;;;;;3.95;2.17;;;23.40;46.90;;;;;;6147321;28;81850;-64
2023/03/27 11:22:14;;;;;;;4.20;2.10;;;23.40;46.70;;;;;;6120151;28;87435;-62
2023/03/27 11:25:18;;;;;;;2.88;2.22;;;23.40;46.40;;;;;;6144623;28;84437;-65
2023/03/27 11:28:20;;;;;;;4.40;2.90;;;23.40;46.50;;;;;;6139097;28;83438;-65
2023/03/27 11:31:20;;;;;;;4.03;2.90;;;23.30;46.40;;;;;;6147538;28;82655;-65
2023/03/27 11:34:27;;;;;;;4.10;2.83;;;23.40;46.60;;;;;;6147380;28;81915;-65
2023/03/27 11:37:29;;;;;;;9.45;3.30;;;23.30;46.40;;;;;;6112980;28;80776;-66
2023/03/27 11:40:30;;;;;;;3.63;2.60;;;23.30;46.10;;;;;;6139800;28;83526;-66
2023/03/27 11:43:34;;;;;;;6.70;3.30;;;23.30;46.20;;;;;;6131413;28;82533;-67
2023/03/27 11:46:35;;;;;;;7.43;3.70;;;23.40;46.00;;;;;;6148615;28;83384;-64
2023/03/27 11:49:37;;;;;;;5.40;3.15;;;23.40;45.80;;;;;;6131206;28;82848;-66
2023/03/27 11:52:37;;;;;;;4.70;3.42;;;23.30;45.70;;;;;;6153159;28;81379;-65
2023/03/27 11:55:38;;;;;;;6.45;3.60;;;23.30;45.50;;;;;;6153260;28;80390;-67
2023/03/27 11:58:39;;;;;;;5.18;3.05;;;23.30;45.50;;;;;;6149162;28;83217;-66
2023/03/27 12:01:39;;;;;;;5.00;3.30;;;23.30;45.30;;;;;;6132986;28;81968;-65
2023/03/27 12:04:41;;;;;;;6.57;3.83;;;23.30;45.20;;;;;;6132450;28;83411;-65
2023/03/27 12:08:05;;;;;;;7.72;3.80;;;23.30;45.10;;;;;;6136671;28;81061;-66
2023/03/27 12:11:06;;;;;;;3.97;3.30;;;23.30;44.90;;;;;;6150454;28;83090;-74
2023/03/27 12:14:09;;;;;;;4.05;3.28;;;23.30;44.80;;;;;;6150368;28;83513;-69
2023/03/27 12:17:14;;;;;;;5.38;4.00;;;23.30;44.60;;;;;;6153768;28;83280;-63
2023/03/27 12:20:24;;;;;;;6.63;4.30;;;23.20;44.60;;;;;;6154393;28;83706;-63
2023/03/27 12:23:36;;;;;;;7.63;3.72;;;23.20;44.50;;;;;;6151527;28;82865;-66
2023/03/27 12:27:15;;;;;;;6.13;3.58;;;23.30;44.50;;;;;;6149212;28;81181;-67
2023/03/27 12:30:30;;;;;;;5.47;3.30;;;23.20;44.30;;;;;;6151959;28;80605;-68
2023/03/27 12:33:30;;;;;;;7.45;3.63;;;23.20;44.20;;;;;;6124464;28;81868;-68
2023/03/27 12:36:31;;;;;;;3.67;2.97;;;23.20;43.90;;;;;;6144460;28;82210;-68
2023/03/27 12:39:32;;;;;;;3.53;2.83;;;23.20;43.70;;;;;;6132895;28;83409;-66
2023/03/27 12:42:41;;;;;;;4.80;2.90;;;23.20;43.60;;;;;;6148859;28;82892;-67
2023/03/27 12:45:42;;;;;;;5.63;3.05;;;23.20;43.10;;;;;;6152610;28;81139;-68
2023/03/27 12:48:42;;;;;;;5.85;3.25;;;23.20;42.90;;;;;;6142629;28;81114;-67
2023/03/27 12:51:46;;;;;;;4.57;2.90;;;23.20;42.80;;;;;;6141615;28;80655;-61
2023/03/27 12:54:51;;;;;;;4.47;3.38;;;23.20;42.70;;;;;;6142464;28;83285;-66
2023/03/27 12:58:14;;;;;;;6.82;3.22;;;23.20;42.50;;;;;;6127961;28;85514;-60
2023/03/27 13:01:18;;;;;;;4.57;2.72;;;23.30;42.70;;;;;;6106454;28;82375;-70
2023/03/27 13:04:27;;;;;;;3.30;2.40;;;23.30;42.50;;;;;;6098819;28;82978;-68
2023/03/27 13:07:28;;;;;;;4.70;2.35;;;23.30;42.40;;;;;;6095661;28;82927;-74
2023/03/27 13:10:50;;;;;;;9.57;2.70;;;23.40;42.80;;;;;;6078608;28;83615;-72
2023/03/27 13:13:51;;;;;;;4.18;2.30;;;23.40;42.30;;;;;;6117321;28;84681;-73
2023/03/27 13:16:52;;;;;;;3.70;2.45;;;23.50;42.30;;;;;;6087303;28;83258;-69
2023/03/27 13:19:52;;;;;;;4.25;2.50;;;23.50;42.20;;;;;;6067766;28;83614;-69
2023/03/27 13:22:58;;;;;;;4.05;2.80;;;23.50;42.20;;;;;;6068169;28;82919;-70
2023/03/27 13:26:01;;;;;;;8.75;2.80;;;23.60;42.50;;;;;;6055151;28;83509;-66
2023/03/27 13:29:05;;;;;;;4.60;2.22;;;23.60;42.60;;;;;;6073801;28;83235;-67
2023/03/27 13:32:06;;;;;;;3.67;2.33;;;23.60;42.70;;;;;;6078854;28;83178;-66
2023/03/27 13:35:19;;;;;;;5.88;2.35;;;23.60;42.60;;;;;;6087263;28;85158;-70
2023/03/27 13:38:20;;;;;;;3.78;2.38;;;23.60;42.40;;;;;;6092628;28;83470;-68
2023/03/27 13:41:32;;;;;;;6.53;2.15;;;23.70;42.70;;;;;;6070964;28;80612;-70
2023/03/27 13:44:34;;;;;;;5.53;2.80;;;23.70;42.60;;;;;;6093082;28;85717;-69
2023/03/27 13:47:35;;;;;;;5.18;3.00;;;23.70;42.60;;;;;;6067059;28;83065;-67
2023/03/27 13:50:36;;;;;;;6.30;3.28;;;23.70;42.60;;;;;;6082591;28;83159;-67
2023/03/27 13:53:40;;;;;;;3.80;2.45;;;23.70;42.60;;;;;;6062657;28;83013;-68
2023/03/27 13:57:06;;;;;;;6.47;2.40;;;23.70;42.60;;;;;;6080605;28;82168;-69
2023/03/27 14:00:14;;;;;;;7.60;2.17;;;23.70;42.20;;;;;;6078755;28;83680;-69
2023/03/27 14:03:17;;;;;;;4.45;2.80;;;23.80;42.10;;;;;;6113737;28;80738;-70
2023/03/27 14:06:22;;;;;;;3.88;2.50;;;23.70;41.90;;;;;;6107163;28;83575;-71
2023/03/27 14:09:25;;;;;;;7.57;2.38;;;23.60;42.60;;;;;;6138267;28;83712;-69
2023/03/27 14:12:39;;;;;;;4.63;2.83;;;23.70;42.20;;;;;;6114004;28;84636;-68
2023/03/27 14:15:45;;;;;;;5.72;2.50;;;23.60;42.10;;;;;;6105808;28;82643;-68
2023/03/27 14:19:02;;;;;;;3.90;2.22;;;23.60;42.10;;;;;;6107240;28;84818;-68
2023/03/27 14:22:04;;;;;;;3.65;2.20;;;23.60;42.20;;;;;;6123527;28;82030;-70
2023/03/27 14:25:10;;;;;;;4.10;2.33;;;23.60;42.30;;;;;;6137280;28;87469;-70
2023/03/27 14:28:20;;;;;;;7.00;2.55;;;23.60;42.00;;;;;;6108189;28;82735;-73
2023/03/27 14:31:21;;;;;;;4.07;2.50;;;23.60;42.30;;;;;;6104824;28;83385;-71
2023/03/27 14:34:33;;;;;;;5.82;2.17;;;23.60;42.20;;;;;;6106687;28;83465;-75
2023/03/27 14:37:54;;;;;;;2.35;1.70;;;23.60;42.00;;;;;;6124422;28;87897;-74
2023/03/27 14:41:04;;;;;;;2.95;2.08;;;23.50;42.10;;;;;;6105634;28;83486;-71
2023/03/27 14:44:20;;;;;;;6.00;2.47;;;23.60;42.00;;;;;;6099788;28;84941;-69
2023/03/27 14:47:21;;;;;;;4.88;2.58;;;23.60;41.90;;;;;;6106585;28;83228;-73
2023/03/27 14:50:22;;;;;;;2.35;1.92;;;23.60;41.90;;;;;;6104992;28;83642;-71
2023/03/27 14:53:25;;;;;;;3.75;1.80;;;23.60;41.80;;;;;;6105981;28;83180;-73
2023/03/27 14:56:55;;;;;;;5.55;2.17;;;23.50;41.70;;;;;;6110561;28;81354;-74
2023/03/27 15:00:06;;;;;;;6.28;2.03;;;23.60;42.50;;;;;;6124185;28;83546;-75
2023/03/27 15:03:10;;;;;;;6.43;1.88;;;23.50;41.60;;;;;;6105106;28;82878;-63
2023/03/27 15:06:12;;;;;;;5.63;2.17;;;23.50;41.50;;;;;;6141333;28;83578;-71
2023/03/27 15:09:22;;;;;;;3.38;2.20;;;23.50;42.00;;;;;;6110223;28;83129;-72
2023/03/27 15:12:25;;;;;;;10.45;2.10;;;23.50;42.00;;;;;;6122533;28;80356;-73
2023/03/27 15:15:26;;;;;;;4.20;2.10;;;23.50;42.20;;;;;;6105979;28;83728;-70
2023/03/27 15:18:30;;;;;;;4.43;2.13;;;23.50;42.30;;;;;;6107602;28;82266;-70
2023/03/27 15:21:37;;;;;;;5.78;1.90;;;23.50;42.30;;;;;;6103040;28;83287;-70
2023/03/27 15:24:38;;;;;;;4.68;1.77;;;23.50;42.50;;;;;;6143412;28;82940;-67
2023/03/27 15:27:39;;;;;;;6.68;2.45;;;23.50;42.20;;;;;;6105545;28;82993;-68
2023/03/27 15:30:40;;;;;;;3.28;1.90;;;23.50;42.10;;;;;;6124426;28;80470;-68
2023/03/27 15:33:41;;;;;;;4.43;2.10;;;23.50;42.20;;;;;;6123391;28;80404;-63
2023/03/27 15:36:43;;;;;;;8.90;2.30;;;23.50;42.00;;;;;;6122628;28;81231;-72
2023/03/27 15:39:44;;;;;;;3.42;2.20;;;23.50;42.30;;;;;;6123112;28;80639;-70
2023/03/27 15:42:45;;;;;;;5.43;2.13;;;23.50;42.00;;;;;;6103631;28;85743;-69
2023/03/27 15:45:45;;;;;;;6.13;2.63;;;23.50;41.90;;;;;;6111336;28;80759;-70
2023/03/27 15:48:49;;;;;;;4.15;1.70;;;23.40;41.80;;;;;;6126182;28;84475;-70
2023/03/27 15:51:50;;;;;;;2.40;1.60;;;23.50;41.90;;;;;;6125457;28;80059;-69
2023/03/27 15:54:50;;;;;;;8.27;2.20;;;23.40;41.80;;;;;;6124609;28;81068;-72
2023/03/27 15:57:51;;;;;;;5.57;2.33;;;23.50;41.90;;;;;;6126565;28;83817;-72
2023/03/27 16:00:51;;;;;;;11.48;2.20;;;23.40;41.70;;;;;;6096007;28;81870;-71
2023/03/27 16:03:52;;;;;;;4.22;2.28;;;23.40;41.50;;;;;;6102867;28;81307;-68